Time;durP1;ratioP1;P1;durP2;ratioP2;P2;SDS_P1;SDS_P2;PMS_P1;PMS_P2;Temp;Humidity;BMP_temperature;BMP_pressure;BME280_temperature;BME280_humidity;BME280_pressure;Samples;Min_cycle;Max_cycle;Signal;HPM_P1;HPM_P2
2021/05/16 00:01:26;;;;;;;0.93;0.57;;;;;;;7.27;79.88;95540.81;5086803;28;20040;-75
2021/05/16 00:03:52;;;;;;;0.95;0.57;;;;;;;7.30;80.07;95543.75;5086632;28;20048;-75
2021/05/16 00:06:19;;;;;;;0.93;0.88;;;;;;;7.32;80.02;95548.75;5094138;28;20465;-75
2021/05/16 00:08:47;;;;;;;1.75;0.75;;;;;;;7.34;80.09;95549.31;5086593;28;20055;-75
2021/05/16 00:11:13;;;;;;;0.43;0.43;;;;;;;7.38;80.14;95555.69;5093094;28;20507;-75
2021/05/16 00:13:40;;;;;;;0.63;0.50;;;;;;;7.38;79.94;95552.31;5094272;28;20039;-75
2021/05/16 00:16:08;;;;;;;1.10;0.70;;;;;;;7.39;80.14;95554.69;5091853;28;20396;-75
2021/05/16 00:18:34;;;;;;;1.98;0.82;;;;;;;7.39;79.94;95548.66;5080874;28;20052;-75
2021/05/16 00:21:00;;;;;;;0.68;0.68;;;;;;;7.41;80.23;95551.84;5089826;28;20047;-75
2021/05/16 00:23:26;;;;;;;1.23;0.80;;;;;;;7.44;80.31;95548.81;5094005;28;20044;-75
2021/05/16 00:26:02;;;;;;;1.65;0.60;;;;;;;7.47;80.16;95545.75;5090842;28;20048;-75
2021/05/16 00:28:28;;;;;;;1.77;0.70;;;;;;;7.47;80.15;95536.13;5084967;28;20067;-75
2021/05/16 00:31:02;;;;;;;1.70;0.67;;;;;;;7.46;80.29;95538.97;5081051;28;20048;-75
2021/05/16 00:33:28;;;;;;;1.13;1.00;;;;;;;7.45;80.16;95532.94;5089991;28;20678;-76
2021/05/16 00:35:54;;;;;;;0.73;0.73;;;;;;;7.47;80.37;95532.72;5094856;28;20052;-75
2021/05/16 00:38:20;;;;;;;0.77;0.75;;;;;;;7.48;80.37;95536.94;5091681;28;20048;-75
2021/05/16 00:40:47;;;;;;;0.80;0.70;;;;;;;7.51;80.33;95534.66;5083156;28;20044;-75
2021/05/16 00:43:13;;;;;;;0.75;0.75;;;;;;;7.53;80.31;95527.41;5089061;28;20419;-75
2021/05/16 00:45:39;;;;;;;0.70;0.57;;;;;;;7.52;80.40;95519.81;5094687;28;20040;-75
2021/05/16 00:48:08;;;;;;;0.70;0.70;;;;;;;7.48;80.44;95529.09;5089249;28;20052;-74
2021/05/16 00:50:37;;;;;;;1.15;0.80;;;;;;;7.45;80.66;95519.09;5082723;28;20059;-75
2021/05/16 00:53:04;;;;;;;1.88;0.82;;;;;;;7.45;80.80;95524.31;5093795;28;20036;-75
2021/05/16 00:55:31;;;;;;;1.52;0.88;;;;;;;7.45;80.76;95504.22;5091336;28;20055;-75
2021/05/16 00:57:57;;;;;;;1.40;0.80;;;;;;;7.45;80.91;95506.84;5081477;28;20040;-75
2021/05/16 01:00:30;;;;;;;1.27;0.90;;;;;;;7.44;81.16;95517.53;5090821;28;20487;-75
2021/05/16 01:02:57;;;;;;;1.48;0.80;;;;;;;7.44;81.07;95507.88;5084260;28;20040;-75
2021/05/16 01:05:24;;;;;;;0.80;0.80;;;;;;;7.47;81.14;95515.25;5092039;28;20047;-75
2021/05/16 01:07:50;;;;;;;0.60;0.60;;;;;;;7.52;81.06;95517.22;5088086;28;20044;-75
2021/05/16 01:10:18;;;;;;;3.33;0.85;;;;;;;7.56;81.32;95515.75;5089020;28;20044;-75
2021/05/16 01:12:47;;;;;;;1.40;0.70;;;;;;;7.58;81.13;95513.72;5085779;28;20043;-74
2021/05/16 01:15:16;;;;;;;2.30;0.82;;;;;;;7.62;81.24;95511.44;5089929;28;20036;-75
2021/05/16 01:17:43;;;;;;;0.80;0.80;;;;;;;7.65;81.27;95508.41;5087477;28;20036;-75
2021/05/16 01:20:12;;;;;;;0.65;0.65;;;;;;;7.68;81.40;95506.13;5076954;28;20048;-74
2021/05/16 01:22:38;;;;;;;1.05;0.88;;;;;;;7.73;81.31;95508.09;5092848;28;20028;-75
2021/05/16 01:25:06;;;;;;;0.77;0.73;;;;;;;7.76;81.21;95514.69;5091765;28;20480;-75
2021/05/16 01:27:33;;;;;;;1.90;1.05;;;;;;;7.80;81.32;95518.44;5082305;28;20043;-75
2021/05/16 01:29:59;;;;;;;1.08;0.88;;;;;;;7.77;81.14;95509.25;5093258;28;20044;-75
2021/05/16 01:32:26;;;;;;;1.25;0.80;;;;;;;7.79;81.21;95511.59;5083990;28;20462;-75
2021/05/16 01:34:52;;;;;;;2.17;1.17;;;;;;;7.80;81.28;95514.00;5090101;28;20064;-76
2021/05/16 01:37:19;;;;;;;0.82;0.80;;;;;;;7.84;81.21;95517.75;5091544;28;20039;-76
2021/05/16 01:39:47;;;;;;;1.40;0.90;;;;;;;7.82;81.13;95514.56;5085811;28;20055;-76
2021/05/16 01:42:16;;;;;;;1.02;0.65;;;;;;;7.85;81.18;95519.38;5078364;28;20040;-76
2021/05/16 01:44:43;;;;;;;1.25;0.77;;;;;;;7.86;81.21;95514.94;5083647;28;20468;-76
2021/05/16 01:47:09;;;;;;;0.75;0.60;;;;;;;7.87;81.11;95512.13;5083469;28;20036;-77
2021/05/16 01:49:46;;;;;;;0.98;0.80;;;;;;;7.86;81.09;95518.34;5076041;28;20052;-75
2021/05/16 01:52:12;;;;;;;1.77;0.80;;;;;;;7.90;81.24;95516.88;5089520;28;20503;-74
2021/05/16 01:54:39;;;;;;;1.33;0.80;;;;;;;7.89;81.24;95496.19;5085634;28;20041;-74
2021/05/16 01:57:07;;;;;;;2.42;1.23;;;;;;;7.91;81.32;95502.00;5075917;28;20059;-77
2021/05/16 01:59:35;;;;;;;1.00;0.90;;;;;;;7.92;81.42;95493.94;5090427;28;20036;-76
2021/05/16 02:02:03;;;;;;;2.70;0.82;;;;;;;7.95;81.42;95495.31;5080757;28;20036;-77
2021/05/16 02:04:31;;;;;;;1.58;0.82;;;;;;;7.93;81.21;95492.91;5085868;28;20051;-76
2021/05/16 02:06:58;;;;;;;1.25;1.15;;;;;;;7.88;81.30;95490.19;5092911;28;20032;-75
2021/05/16 02:09:26;;;;;;;1.73;1.00;;;;;;;7.82;81.38;95495.53;5081497;28;20032;-77
2021/05/16 02:11:52;;;;;;;1.35;1.00;;;;;;;7.83;81.59;95500.53;5082594;28;20036;-77
2021/05/16 02:14:30;;;;;;;1.20;0.90;;;;;;;7.88;82.09;95511.06;5088297;28;20041;-76
2021/05/16 02:17:00;;;;;;;3.30;1.20;;;;;;;7.91;81.99;95500.19;5079087;28;20044;-77
2021/05/16 02:19:26;;;;;;;1.58;1.38;;;;;;;7.95;81.81;95507.56;5083860;28;20040;-77
2021/05/16 02:21:53;;;;;;;0.90;0.90;;;;;;;7.95;81.82;95502.34;5089352;28;20040;-75
2021/05/16 02:24:20;;;;;;;1.05;1.00;;;;;;;7.95;81.84;95504.97;5087068;28;20048;-76
2021/05/16 02:26:47;;;;;;;1.15;0.90;;;;;;;7.96;81.85;95511.75;5082129;28;20040;-76
2021/05/16 02:29:15;;;;;;;0.80;0.80;;;;;;;7.96;81.91;95511.75;5088230;28;20408;-74
2021/05/16 02:31:43;;;;;;;1.38;0.85;;;;;;;8.00;82.02;95512.91;5084024;28;20032;-76
2021/05/16 02:34:09;;;;;;;0.80;0.80;;;;;;;8.04;81.83;95503.59;5082551;28;20063;-76
2021/05/16 02:36:36;;;;;;;1.58;1.13;;;;;;;8.06;81.95;95505.00;5092248;28;20059;-76
2021/05/16 02:39:04;;;;;;;1.60;1.10;;;;;;;8.08;81.98;95502.13;5082205;28;20047;-75
2021/05/16 02:41:31;;;;;;;1.65;1.05;;;;;;;8.08;81.97;95504.75;5089709;28;20036;-76
2021/05/16 02:43:57;;;;;;;1.27;1.00;;;;;;;8.08;82.01;95496.91;5091891;28;20051;-74
2021/05/16 02:46:24;;;;;;;1.23;1.00;;;;;;;8.06;81.87;95498.97;5084231;28;20044;-76
2021/05/16 02:48:50;;;;;;;1.15;1.10;;;;;;;8.08;82.08;95492.50;5079751;28;20110;-76
2021/05/16 02:51:17;;;;;;;1.40;1.25;;;;;;;8.09;82.11;95493.31;5085765;28;20040;-76
2021/05/16 02:53:43;;;;;;;1.08;1.00;;;;;;;8.08;82.03;95489.91;5087809;28;20040;-76
2021/05/16 02:56:10;;;;;;;1.80;1.20;;;;;;;8.07;82.05;95490.13;5095844;28;20110;-76
2021/05/16 02:58:36;;;;;;;1.77;0.90;;;;;;;8.08;82.09;95489.09;5095702;28;20055;-75
2021/05/16 03:01:02;;;;;;;0.88;0.85;;;;;;;8.09;82.18;95485.47;5091728;28;20051;-75
2021/05/16 03:03:29;;;;;;;1.17;0.93;;;;;;;8.08;82.18;95491.69;5092862;28;20044;-75
2021/05/16 03:05:55;;;;;;;1.05;0.93;;;;;;;8.08;82.16;95483.88;5091223;28;20051;-76
2021/05/16 03:08:21;;;;;;;1.10;1.00;;;;;;;8.07;82.34;95477.84;5090905;28;20488;-76
2021/05/16 03:10:47;;;;;;;1.27;1.17;;;;;;;8.09;82.32;95473.19;5083605;28;20052;-76
2021/05/16 03:13:13;;;;;;;1.83;1.20;;;;;;;8.09;82.27;95482.84;5092580;28;20044;-76
2021/05/16 03:15:40;;;;;;;0.90;0.90;;;;;;;8.06;82.33;95478.88;5093544;28;20051;-77
2021/05/16 03:18:06;;;;;;;1.40;1.30;;;;;;;8.04;82.37;95477.50;5093295;28;20056;-75
2021/05/16 03:20:32;;;;;;;1.25;1.10;;;;;;;8.04;82.45;95478.31;5088802;28;20044;-75
2021/05/16 03:22:58;;;;;;;1.23;1.20;;;;;;;8.02;82.53;95475.13;5081843;28;20048;-75
2021/05/16 03:25:25;;;;;;;1.05;0.93;;;;;;;7.99;82.47;95480.00;5087621;28;20373;-75
2021/05/16 03:27:51;;;;;;;1.88;1.40;;;;;;;7.96;82.55;95480.44;5080712;28;20398;-76
2021/05/16 03:30:17;;;;;;;1.23;0.98;;;;;;;7.95;82.70;95479.66;5085089;28;20051;-77
2021/05/16 03:32:44;;;;;;;1.70;1.20;;;;;;;7.96;82.67;95475.22;5088449;28;20116;-75
2021/05/16 03:35:11;;;;;;;1.45;1.08;;;;;;;7.98;82.93;95479.22;5089612;28;20063;-76
2021/05/16 03:37:38;;;;;;;1.80;1.00;;;;;;;8.01;82.93;95483.19;5091239;28;20056;-75
2021/05/16 03:40:06;;;;;;;1.67;1.38;;;;;;;8.04;83.05;95482.72;5095961;28;20063;-75
2021/05/16 03:42:34;;;;;;;1.52;1.20;;;;;;;8.04;83.06;95487.94;5081189;28;20047;-75
2021/05/16 03:45:01;;;;;;;1.80;1.20;;;;;;;8.04;82.85;95480.94;5085419;28;20028;-78
2021/05/16 03:47:27;;;;;;;0.90;0.90;;;;;;;8.04;82.89;95487.94;5090071;28;20047;-76
2021/05/16 03:49:53;;;;;;;1.00;0.95;;;;;;;8.04;82.84;95488.75;5099097;28;20392;-76
2021/05/16 03:52:19;;;;;;;1.10;1.10;;;;;;;8.06;83.08;95491.94;5094815;28;20044;-77
2021/05/16 03:54:47;;;;;;;1.80;1.50;;;;;;;8.08;83.08;95489.91;5089935;28;20040;-75
2021/05/16 03:57:17;;;;;;;1.20;1.10;;;;;;;8.10;83.30;95490.44;5085257;28;20052;-75
2021/05/16 03:59:44;;;;;;;1.20;1.10;;;;;;;8.10;83.15;95487.03;5093165;28;20448;-75
2021/05/16 04:02:10;;;;;;;1.48;1.20;;;;;;;8.07;83.34;95488.28;5089973;28;20044;-74
2021/05/16 04:04:39;;;;;;;0.90;0.90;;;;;;;8.06;83.51;95486.72;5094026;28;20044;-75
2021/05/16 04:07:06;;;;;;;1.00;0.90;;;;;;;8.04;83.54;95488.75;5082317;28;20044;-75
2021/05/16 04:09:32;;;;;;;1.85;1.20;;;;;;;8.02;83.57;95488.19;5093455;28;20050;-75
2021/05/16 04:11:58;;;;;;;1.10;1.00;;;;;;;8.01;83.71;95486.59;5092745;28;20503;-75
2021/05/16 04:14:25;;;;;;;2.22;0.80;;;;;;;8.03;83.80;95486.38;5094947;28;20040;-75
2021/05/16 04:16:51;;;;;;;0.60;0.60;;;;;;;8.02;83.87;95488.19;5083577;28;20043;-76
2021/05/16 04:19:18;;;;;;;1.15;0.80;;;;;;;8.05;83.91;95495.56;5094727;28;20047;-75
2021/05/16 04:21:44;;;;;;;0.65;0.65;;;;;;;8.06;83.97;95488.50;5093837;28;20044;-76
2021/05/16 04:24:11;;;;;;;0.70;0.70;;;;;;;8.02;84.12;95490.81;5087609;28;20048;-76
2021/05/16 04:26:37;;;;;;;0.73;0.73;;;;;;;8.03;84.27;95496.81;5092796;28;20052;-76
2021/05/16 04:29:04;;;;;;;0.80;0.70;;;;;;;8.06;84.25;95491.94;5077150;28;20075;-76
2021/05/16 04:31:31;;;;;;;1.05;0.68;;;;;;;8.05;84.34;95492.16;5079882;28;20052;-75
2021/05/16 04:33:57;;;;;;;0.65;0.65;;;;;;;8.06;84.39;95499.78;5087914;28;20059;-76
2021/05/16 04:36:26;;;;;;;0.68;0.50;;;;;;;8.04;84.60;95491.38;5092268;28;20059;-76
2021/05/16 04:38:52;;;;;;;0.60;0.60;;;;;;;8.09;84.69;95490.69;5094611;28;20036;-76
2021/05/16 04:41:19;;;;;;;0.57;0.57;;;;;;;8.09;84.55;95496.69;5094263;28;20048;-77
2021/05/16 04:43:46;;;;;;;1.75;0.60;;;;;;;8.11;84.55;95496.47;5094154;28;20047;-77
2021/05/16 04:46:13;;;;;;;1.20;0.85;;;;;;;8.13;84.73;95499.66;5083505;28;20043;-76
2021/05/16 04:48:39;;;;;;;0.80;0.80;;;;;;;8.17;84.72;95498.19;5091481;28;20067;-77
2021/05/16 04:51:05;;;;;;;1.33;0.90;;;;;;;8.16;84.81;95499.19;5085174;28;20040;-76
2021/05/16 04:53:34;;;;;;;1.00;0.80;;;;;;;8.18;85.01;95502.38;5092897;28;20036;-77
2021/05/16 04:56:00;;;;;;;0.60;0.60;;;;;;;8.22;85.01;95502.72;5083912;28;20424;-77
2021/05/16 04:58:28;;;;;;;0.93;0.90;;;;;;;8.22;84.82;95503.53;5087584;28;20048;-77
2021/05/16 05:00:54;;;;;;;0.88;0.65;;;;;;;8.25;85.13;95510.91;5076667;28;20040;-77
2021/05/16 05:03:22;;;;;;;1.08;0.80;;;;;;;8.27;85.05;95513.28;5081703;28;20047;-75
2021/05/16 05:05:53;;;;;;;0.75;0.75;;;;;;;8.26;85.26;95512.50;5088131;28;20476;-75
2021/05/16 05:08:21;;;;;;;0.90;0.90;;;;;;;8.24;85.03;95504.09;5075915;28;20051;-75
2021/05/16 05:10:47;;;;;;;0.93;0.50;;;;;;;8.22;85.18;95503.53;5083076;28;20036;-75
2021/05/16 05:13:14;;;;;;;1.25;0.70;;;;;;;8.22;85.32;95506.13;5093677;28;20043;-75
2021/05/16 05:15:40;;;;;;;1.27;0.55;;;;;;;8.21;85.41;95512.41;5093350;28;20043;-74
2021/05/16 05:18:06;;;;;;;1.75;0.98;;;;;;;8.19;85.41;95508.41;5093288;28;20040;-74
2021/05/16 05:20:33;;;;;;;0.95;0.85;;;;;;;8.18;85.71;95507.59;5084150;28;20039;-74
2021/05/16 05:23:00;;;;;;;1.17;0.90;;;;;;;8.18;85.88;95510.22;5092407;28;20043;-75
2021/05/16 05:25:27;;;;;;;1.00;0.82;;;;;;;8.24;86.02;95511.13;5085403;28;20032;-75
2021/05/16 05:27:55;;;;;;;0.65;0.65;;;;;;;8.28;86.12;95500.00;5082917;28;20061;-75
2021/05/16 05:30:25;;;;;;;1.95;0.80;;;;;;;8.36;86.32;95503.28;5100847;28;20044;-74
2021/05/16 05:32:52;;;;;;;1.15;0.80;;;;;;;8.80;86.50;95503.75;5092295;28;20047;-75
2021/05/16 05:35:19;;;;;;;0.82;0.82;;;;;;;9.43;86.09;95495.09;5081568;28;20398;-76
2021/05/16 05:37:45;;;;;;;1.33;0.85;;;;;;;10.07;85.13;95492.25;5076579;28;20055;-75
2021/05/16 05:40:12;;;;;;;1.58;0.95;;;;;;;10.71;83.97;95499.78;5084379;28;20041;-75
2021/05/16 05:42:40;;;;;;;0.70;0.70;;;;;;;11.22;81.85;95504.09;5092379;28;20035;-76
2021/05/16 05:45:08;;;;;;;0.63;0.63;;;;;;;11.39;80.50;95507.44;5075505;28;20040;-75
2021/05/16 05:47:35;;;;;;;0.63;0.63;;;;;;;11.13;79.81;95501.88;5086742;28;20397;-75
2021/05/16 05:50:04;;;;;;;0.85;0.80;;;;;;;11.00;79.79;95502.22;5084410;28;20044;-75
2021/05/16 05:52:30;;;;;;;1.08;0.52;;;;;;;10.85;79.54;95510.69;5090216;28;20040;-74
2021/05/16 05:54:56;;;;;;;1.25;0.90;;;;;;;10.41;79.15;95512.44;5092412;28;20044;-74
2021/05/16 05:57:22;;;;;;;1.02;0.77;;;;;;;10.12;79.43;95508.06;5089366;28;20496;-75
2021/05/16 05:59:49;;;;;;;0.52;0.52;;;;;;;9.88;79.73;95512.63;5091797;28;20384;-74
2021/05/16 06:02:15;;;;;;;1.58;0.70;;;;;;;9.77;80.18;95513.50;5088721;28;20040;-75
2021/05/16 06:04:41;;;;;;;0.95;0.68;;;;;;;10.18;81.37;95511.53;5073248;28;20036;-74
2021/05/16 06:07:07;;;;;;;0.50;0.50;;;;;;;10.32;80.29;95510.22;5089121;28;20047;-74
2021/05/16 06:09:35;;;;;;;1.02;0.90;;;;;;;10.29;79.88;95513.34;5086054;28;20044;-74
2021/05/16 06:12:04;;;;;;;0.98;0.55;;;;;;;10.14;79.56;95505.19;5079622;28;20048;-75
2021/05/16 06:14:32;;;;;;;0.88;0.40;;;;;;;10.07;79.79;95494.06;5081224;28;20487;-74
2021/05/16 06:16:58;;;;;;;0.65;0.65;;;;;;;10.16;79.94;95510.97;5078560;28;20039;-74
2021/05/16 06:19:24;;;;;;;0.60;0.60;;;;;;;10.73;80.65;95505.59;5092093;28;20048;-75
2021/05/16 06:21:50;;;;;;;0.55;0.55;;;;;;;11.22;79.74;95509.34;5092885;28;20047;-74
2021/05/16 06:24:17;;;;;;;0.35;0.35;;;;;;;11.40;78.38;95500.34;5082070;28;20044;-74
2021/05/16 06:26:44;;;;;;;0.40;0.40;;;;;;;11.73;77.74;95500.16;5092496;28;20043;-74
2021/05/16 06:29:12;;;;;;;0.60;0.55;;;;;;;12.47;77.97;95500.53;5093073;28;20046;-74
2021/05/16 06:31:40;;;;;;;0.40;0.40;;;;;;;13.04;75.57;95499.81;5085907;28;20047;-75
2021/05/16 06:34:07;;;;;;;0.43;0.30;;;;;;;13.34;74.39;95501.03;5094837;28;20055;-74
2021/05/16 06:36:33;;;;;;;0.50;0.40;;;;;;;13.37;73.26;95508.38;5095882;28;20040;-74
2021/05/16 06:38:59;;;;;;;0.30;0.30;;;;;;;13.07;71.94;95512.47;5096745;28;20036;-75
2021/05/16 06:41:26;;;;;;;0.73;0.40;;;;;;;12.97;72.25;95512.41;5091944;28;20051;-74
2021/05/16 06:43:53;;;;;;;0.73;0.45;;;;;;;12.98;72.15;95514.78;5085977;28;20044;-74
2021/05/16 06:46:19;;;;;;;0.65;0.52;;;;;;;12.87;71.56;95499.19;5077318;28;20051;-75
2021/05/16 06:48:46;;;;;;;0.82;0.57;;;;;;;12.63;71.16;95515.38;5093519;28;20392;-74
2021/05/16 06:51:13;;;;;;;0.63;0.30;;;;;;;12.44;71.30;95509.72;5096278;28;20043;-74
2021/05/16 06:53:39;;;;;;;0.63;0.40;;;;;;;12.34;71.52;95502.53;5093162;28;20052;-74
2021/05/16 06:56:12;;;;;;;0.30;0.30;;;;;;;12.35;71.41;95496.25;5087835;28;20060;-74
2021/05/16 06:58:39;;;;;;;2.20;0.60;;;;;;;12.30;70.88;95500.69;5095081;28;20047;-75
2021/05/16 07:01:05;;;;;;;0.85;0.40;;;;;;;12.24;70.81;95502.50;5094040;28;20480;-75
2021/05/16 07:03:34;;;;;;;1.17;0.60;;;;;;;12.09;70.34;95512.88;5094020;28;20035;-75
2021/05/16 07:06:01;;;;;;;1.50;0.50;;;;;;;12.00;70.40;95509.91;5088986;28;20506;-75
2021/05/16 07:08:27;;;;;;;0.50;0.50;;;;;;;11.96;70.48;95517.47;5089191;28;20052;-75
2021/05/16 07:10:54;;;;;;;0.77;0.40;;;;;;;11.96;70.24;95509.59;5084805;28;20040;-75
2021/05/16 07:13:21;;;;;;;0.57;0.40;;;;;;;12.18;70.62;95506.13;5095081;28;20468;-75
2021/05/16 07:15:47;;;;;;;0.77;0.63;;;;;;;12.85;70.16;95503.91;5089070;28;20039;-75
2021/05/16 07:18:13;;;;;;;2.00;1.90;;;;;;;13.15;68.46;95500.66;5080650;28;20043;-75
2021/05/16 07:20:39;;;;;;;1.25;0.82;;;;;;;13.48;67.90;95504.75;5084268;28;20040;-75
2021/05/16 07:23:05;;;;;;;0.70;0.70;;;;;;;13.86;67.08;95501.91;5089978;28;20037;-75
2021/05/16 07:25:32;;;;;;;0.88;0.60;;;;;;;13.89;65.97;95504.06;5085251;28;20496;-75
2021/05/16 07:27:58;;;;;;;1.15;0.70;;;;;;;13.78;65.73;95495.34;5083218;28;20044;-75
2021/05/16 07:30:25;;;;;;;0.73;0.73;;;;;;;13.95;65.78;95510.91;5087747;28;20036;-75
2021/05/16 07:32:51;;;;;;;0.47;0.47;;;;;;;14.40;65.38;95507.50;5086409;28;20036;-75
2021/05/16 07:35:17;;;;;;;0.55;0.55;;;;;;;14.42;64.25;95501.94;5083808;28;20056;-74
2021/05/16 07:37:44;;;;;;;2.58;0.70;;;;;;;14.08;63.92;95501.69;5085697;28;20052;-75
2021/05/16 07:40:11;;;;;;;1.27;1.17;;;;;;;13.67;64.29;95499.00;5090612;28;20055;-74
2021/05/16 07:42:38;;;;;;;2.10;1.20;;;;;;;13.21;64.35;95507.53;5088879;28;20044;-75
2021/05/16 07:45:06;;;;;;;1.30;0.70;;;;;;;13.25;65.34;95500.69;5081288;28;20039;-74
2021/05/16 07:47:34;;;;;;;2.38;0.90;;;;;;;13.62;65.37;95504.25;5084958;28;20040;-75
2021/05/16 07:50:00;;;;;;;0.88;0.47;;;;;;;13.76;64.50;95500.88;5082746;28;20405;-75
2021/05/16 07:52:27;;;;;;;1.55;0.90;;;;;;;13.77;64.41;95499.00;5090008;28;20039;-75
2021/05/16 07:54:54;;;;;;;1.73;0.77;;;;;;;13.81;64.19;95502.72;5085636;28;20047;-75
2021/05/16 07:57:20;;;;;;;1.30;1.20;;;;;;;13.74;64.14;95510.09;5083373;28;20037;-75
2021/05/16 07:59:46;;;;;;;1.40;0.95;;;;;;;13.66;64.36;95507.97;5088273;28;20459;-74
2021/05/16 08:02:13;;;;;;;1.60;1.08;;;;;;;13.83;64.32;95510.38;5083164;28;20036;-74
2021/05/16 08:04:39;;;;;;;0.80;0.55;;;;;;;14.50;64.54;95503.25;5086063;28;20036;-75
2021/05/16 08:07:05;;;;;;;1.17;0.55;;;;;;;15.15;63.21;95484.94;5086342;28;20424;-74
2021/05/16 08:09:31;;;;;;;1.17;0.80;;;;;;;15.48;61.55;95487.97;5084446;28;20471;-74
2021/05/16 08:11:57;;;;;;;2.17;0.90;;;;;;;15.85;60.69;95476.13;5086718;28;20037;-74
2021/05/16 08:14:24;;;;;;;1.58;0.80;;;;;;;16.21;60.09;95476.66;5084917;28;20032;-75
2021/05/16 08:16:50;;;;;;;2.08;0.90;;;;;;;16.39;59.03;95475.97;5081850;28;20110;-75
2021/05/16 08:19:16;;;;;;;0.93;0.70;;;;;;;16.47;58.07;95457.94;5087250;28;20052;-76
2021/05/16 08:21:44;;;;;;;0.82;0.60;;;;;;;16.51;57.67;95459.72;5087912;28;20048;-74
2021/05/16 08:24:10;;;;;;;1.85;0.85;;;;;;;16.78;57.11;95451.25;5082156;28;20047;-74
2021/05/16 08:26:37;;;;;;;1.23;1.00;;;;;;;17.03;56.39;95444.13;5085190;28;20032;-74
2021/05/16 08:29:04;;;;;;;1.30;0.77;;;;;;;16.96;55.53;95435.72;5090926;28;20040;-76
2021/05/16 08:31:35;;;;;;;1.05;0.93;;;;;;;17.02;55.25;95422.13;5085353;28;20043;-74
2021/05/16 08:34:03;;;;;;;2.10;0.80;;;;;;;16.84;54.77;95414.94;5085809;28;20064;-75
2021/05/16 08:36:34;;;;;;;1.08;0.77;;;;;;;16.59;52.51;95408.06;5081928;28;20055;-75
2021/05/16 08:39:01;;;;;;;0.93;0.90;;;;;;;16.61;54.16;95411.22;5084379;28;20051;-74
2021/05/16 08:41:27;;;;;;;3.05;1.00;;;;;;;16.55;53.63;95405.16;5085550;28;20040;-74
2021/05/16 08:43:54;;;;;;;2.22;1.00;;;;;;;16.30;53.71;95410.72;5084744;28;20072;-74
2021/05/16 08:46:21;;;;;;;2.80;1.52;;;;;;;16.06;53.47;95402.72;5084418;28;20040;-74
2021/05/16 08:48:47;;;;;;;2.55;1.10;;;;;;;15.78;53.49;95407.72;5080242;28;20048;-74
2021/05/16 08:51:15;;;;;;;2.33;1.10;;;;;;;15.59;53.43;95410.97;5084606;28;20052;-74
2021/05/16 08:53:43;;;;;;;0.98;0.70;;;;;;;15.45;53.14;95410.00;5085384;28;20037;-74
2021/05/16 08:56:09;;;;;;;2.30;1.20;;;;;;;15.35;53.17;95412.72;5089923;28;20055;-74
2021/05/16 08:58:37;;;;;;;1.33;0.98;;;;;;;15.39;53.18;95417.19;5085580;28;20043;-74
2021/05/16 09:01:35;;;;;;;2.08;1.15;;;;;;;15.59;49.26;95379.28;5080818;28;20048;-74
2021/05/16 09:04:32;;;;;;;1.98;1.33;;;;;;;15.61;48.79;95377.16;5074117;28;20060;-74
2021/05/16 09:06:59;;;;;;;1.75;1.65;;;;;;;15.58;51.54;95395.41;5072666;28;20056;-74
2021/05/16 09:09:30;;;;;;;1.70;1.08;;;;;;;15.69;51.64;95398.78;5087470;28;20059;-74
2021/05/16 09:12:09;;;;;;;1.90;1.15;;;;;;;15.88;51.01;95383.84;5075143;28;20036;-74
2021/05/16 09:14:43;;;;;;;1.50;0.85;;;;;;;16.18;49.74;95376.69;5092484;28;20384;-74
2021/05/16 09:17:34;;;;;;;1.02;0.90;;;;;;;16.44;47.66;95350.75;5093542;28;20451;-74
2021/05/16 09:20:03;;;;;;;1.20;0.73;;;;;;;16.35;48.33;95349.81;5079939;28;20053;-74
2021/05/16 09:22:39;;;;;;;1.90;1.00;;;;;;;16.12;49.03;95354.00;5088821;28;20052;-74
2021/05/16 09:25:06;;;;;;;1.17;0.88;;;;;;;15.90;49.22;95360.56;5088005;28;20043;-74
2021/05/16 09:27:34;;;;;;;1.15;0.93;;;;;;;15.72;49.25;95366.53;5083251;28;20040;-74
2021/05/16 09:30:01;;;;;;;1.65;0.85;;;;;;;15.56;49.38;95356.06;5081726;28;20032;-74
2021/05/16 09:32:48;;;;;;;3.22;1.25;;;;;;;15.72;49.41;95351.44;5084075;28;20040;-74
2021/05/16 09:35:15;;;;;;;1.05;0.70;;;;;;;16.23;49.21;95351.00;5084382;28;20048;-74
2021/05/16 09:37:59;;;;;;;1.15;0.82;;;;;;;16.33;46.47;95330.78;5083026;28;20479;-74
2021/05/16 09:40:27;;;;;;;0.88;0.82;;;;;;;16.37;47.74;95345.81;5084759;28;20040;-74
2021/05/16 09:43:15;;;;;;;1.77;0.75;;;;;;;16.38;44.29;95320.16;5082703;28;20044;-74
2021/05/16 09:46:01;;;;;;;2.10;0.98;;;;;;;16.47;46.80;95354.72;5082385;28;20051;-74
2021/05/16 09:48:38;;;;;;;1.40;0.80;;;;;;;16.90;46.54;95344.94;5085492;28;20060;-74
2021/05/16 09:51:07;;;;;;;1.45;0.88;;;;;;;17.11;45.11;95331.44;5085492;28;20477;-74
2021/05/16 09:53:45;;;;;;;3.45;0.80;;;;;;;17.25;44.12;95324.34;5083148;28;20035;-74
2021/05/16 09:56:27;;;;;;;2.35;1.00;;;;;;;17.37;41.39;95340.59;5086714;28;20032;-74
2021/05/16 09:58:55;;;;;;;0.73;0.65;;;;;;;17.29;44.06;95365.09;5084882;28;20388;-74
2021/05/16 10:01:24;;;;;;;1.42;0.90;;;;;;;17.07;44.14;95364.88;5080892;28;20039;-74
2021/05/16 10:03:50;;;;;;;1.38;0.85;;;;;;;17.02;44.09;95361.22;5083864;28;20487;-74
2021/05/16 10:06:18;;;;;;;2.10;0.90;;;;;;;17.35;44.08;95353.34;5080497;28;20048;-73
2021/05/16 10:08:48;;;;;;;2.38;0.80;;;;;;;17.79;44.02;95360.09;5087460;28;20095;-73
2021/05/16 10:11:25;;;;;;;2.45;1.20;;;;;;;18.15;42.69;95340.16;5082813;28;20480;-72
2021/05/16 10:14:13;;;;;;;0.98;0.63;;;;;;;18.61;41.07;95332.13;5074514;28;20049;-74
2021/05/16 10:16:49;;;;;;;1.60;0.90;;;;;;;18.74;38.78;95311.94;5084152;28;20036;-74
2021/05/16 10:19:19;;;;;;;2.90;0.90;;;;;;;18.61;41.59;95350.72;5084075;28;20044;-74
2021/05/16 10:22:20;;;;;;;1.23;0.70;;;;;;;18.13;41.08;95340.44;5077354;28;20040;-74
2021/05/16 10:24:48;;;;;;;1.60;0.77;;;;;;;17.71;42.33;95363.41;5076856;28;20051;-74
2021/05/16 10:27:21;;;;;;;2.00;1.00;;;;;;;17.37;42.40;95355.72;5087004;28;20044;-74
2021/05/16 10:29:49;;;;;;;5.55;0.90;;;;;;;17.08;42.97;95364.59;5088382;28;20036;-74
2021/05/16 10:32:32;;;;;;;0.95;0.85;;;;;;;16.85;42.34;95358.25;5079860;28;20036;-74
2021/05/16 10:35:00;;;;;;;1.67;1.10;;;;;;;16.76;43.46;95355.44;5078876;28;20409;-74
2021/05/16 10:37:38;;;;;;;1.55;0.80;;;;;;;17.02;43.45;95347.19;5073516;28;20067;-74
2021/05/16 10:40:36;;;;;;;1.20;0.90;;;;;;;17.08;42.97;95340.75;5085704;28;20037;-74
2021/05/16 10:43:04;;;;;;;1.08;0.80;;;;;;;16.97;43.48;95347.25;5085808;28;20500;-74
2021/05/16 10:45:34;;;;;;;1.73;0.95;;;;;;;16.79;43.24;95338.97;5082277;28;20044;-74
2021/05/16 10:48:07;;;;;;;2.05;0.80;;;;;;;16.52;45.52;95344.84;5083320;28;20036;-74
2021/05/16 10:50:48;;;;;;;0.85;0.77;;;;;;;16.29;47.52;95372.88;5077227;28;20051;-73
2021/05/16 10:53:21;;;;;;;1.17;1.00;;;;;;;16.32;49.34;95358.31;5073882;28;20477;-73
2021/05/16 10:55:50;;;;;;;1.90;0.80;;;;;;;16.39;47.45;95348.19;5087688;28;20392;-73
2021/05/16 10:58:37;;;;;;;1.00;0.70;;;;;;;16.79;48.52;95338.19;5086060;28;20036;-73
2021/05/16 11:01:35;;;;;;;2.10;1.00;;;;;;;17.28;51.42;95357.44;5086816;28;20052;-74
2021/05/16 11:04:03;;;;;;;2.00;0.90;;;;;;;17.74;47.76;95319.59;5075879;28;20469;-73
2021/05/16 11:06:29;;;;;;;2.63;0.80;;;;;;;18.16;47.84;95317.84;5081865;28;20041;-73
2021/05/16 11:08:55;;;;;;;2.67;1.00;;;;;;;18.53;47.42;95308.13;5087261;28;20028;-72
2021/05/16 11:11:36;;;;;;;5.28;1.50;;;;;;;18.87;46.86;95294.44;5084205;28;20036;-72
2021/05/16 11:14:17;;;;;;;3.08;0.88;;;;;;;19.24;45.82;95287.25;5082676;28;20044;-72
2021/05/16 11:16:54;;;;;;;2.00;0.80;;;;;;;19.50;45.66;95291.97;5085040;28;20488;-72
2021/05/16 11:19:23;;;;;;;0.88;0.63;;;;;;;19.75;44.97;95283.38;5090413;28;20519;-72
2021/05/16 11:21:50;;;;;;;0.77;0.73;;;;;;;19.81;44.33;95286.72;5089727;28;20419;-72
2021/05/16 11:24:31;;;;;;;1.08;0.70;;;;;;;19.59;43.12;95293.59;5084857;28;20039;-72
2021/05/16 11:26:57;;;;;;;1.13;0.77;;;;;;;19.19;42.99;95276.72;5086877;28;20455;-72
2021/05/16 11:29:23;;;;;;;1.35;0.90;;;;;;;18.98;42.74;95260.47;5085520;28;20111;-72
2021/05/16 11:32:03;;;;;;;1.50;0.73;;;;;;;19.13;41.60;95246.84;5091209;28;20043;-73
2021/05/16 11:34:29;;;;;;;0.95;0.80;;;;;;;19.22;42.37;95242.38;5086251;28;20071;-73
2021/05/16 11:36:56;;;;;;;0.80;0.65;;;;;;;19.35;41.37;95239.94;5090728;28;20433;-73
2021/05/16 11:39:22;;;;;;;0.88;0.77;;;;;;;19.36;41.00;95231.69;5088858;28;20487;-73
2021/05/16 11:41:48;;;;;;;0.85;0.65;;;;;;;19.46;40.72;95217.34;5087329;28;20385;-73
2021/05/16 11:44:24;;;;;;;0.77;0.60;;;;;;;19.59;38.00;95200.53;5082849;28;20043;-73